createdAt,value
2023-05-06T00:02:04.374Z,100593.20
2023-05-06T00:05:12.964Z,100593.20
2023-05-06T00:08:40.424Z,100594.27
2023-05-06T00:12:08.359Z,100591.41
2023-05-06T00:14:57.886Z,100594.80
2023-05-06T00:18:25.583Z,100596.77
2023-05-06T00:21:53.107Z,100597.52
2023-05-06T00:25:01.172Z,100596.96
2023-05-06T00:28:28.860Z,100598.79
2023-05-06T00:31:21.685Z,100595.08
2023-05-06T00:34:49.564Z,100594.50
2023-05-06T00:38:17.276Z,100592.27
2023-05-06T00:41:44.998Z,100588.15
2023-05-06T00:45:12.589Z,100589.96
2023-05-06T00:48:40.375Z,100588.85
2023-05-06T00:52:08.313Z,100588.06
2023-05-06T00:55:36.042Z,100590.33
2023-05-06T00:58:44.447Z,100593.60
2023-05-06T01:02:12.015Z,100594.83
2023-05-06T01:05:39.457Z,100592.62
2023-05-06T01:09:07.344Z,100597.55
2023-05-06T01:12:35.308Z,100598.40
2023-05-06T01:16:02.990Z,100600.23
2023-05-06T01:19:30.647Z,100606.85
2023-05-06T01:22:19.529Z,100610.88
2023-05-06T01:25:47.024Z,100618.17
2023-05-06T01:29:14.806Z,100614.73
2023-05-06T01:32:42.689Z,100614.22
2023-05-06T01:36:10.326Z,100614.11
2023-05-06T01:39:19.364Z,100614.83
2023-05-06T01:42:46.795Z,100612.85
2023-05-06T01:46:14.263Z,100608.05
2023-05-06T01:49:41.702Z,100607.09
2023-05-06T01:52:49.767Z,100607.63
2023-05-06T01:56:18.222Z,100607.38
2023-05-06T01:59:28.934Z,100604.70
2023-05-06T02:02:55.978Z,100601.50
2023-05-06T02:06:23.537Z,100605.36
2023-05-06T02:09:51.274Z,100604.39
2023-05-06T02:13:18.854Z,100603.30
2023-05-06T02:16:27.965Z,100599.42
2023-05-06T02:19:55.403Z,100599.53
2023-05-06T02:22:43.898Z,100595.24
2023-05-06T02:25:51.519Z,100591.91
2023-05-06T02:29:19.166Z,100588.86
2023-05-06T02:32:46.861Z,100586.73
2023-05-06T02:36:14.554Z,100583.88
2023-05-06T02:39:42.121Z,100585.01
2023-05-06T02:43:09.795Z,100586.89
2023-05-06T02:46:37.570Z,100588.85
2023-05-06T02:49:46.030Z,100589.38
2023-05-06T02:52:54.788Z,100585.78
2023-05-06T02:56:22.201Z,100585.67
2023-05-06T02:59:31.350Z,100588.73
2023-05-06T03:02:59.405Z,100593.61
2023-05-06T03:06:27.275Z,100595.52
2023-05-06T03:09:37.237Z,100595.84
2023-05-06T03:13:05.211Z,100598.91
2023-05-06T03:16:32.846Z,100601.38
2023-05-06T03:19:41.741Z,100600.08
2023-05-06T03:23:09.665Z,100597.85
2023-05-06T03:26:37.477Z,100598.47
2023-05-06T03:30:05.464Z,100602.03
2023-05-06T03:33:33.337Z,100607.73
2023-05-06T03:37:00.986Z,100614.48
2023-05-06T03:40:09.260Z,100616.24
2023-05-06T03:43:37.182Z,100617.70
2023-05-06T03:47:04.986Z,100619.21
2023-05-06T03:50:32.838Z,100622.00
2023-05-06T03:53:42.194Z,100623.45
2023-05-06T03:56:51.336Z,100622.41
2023-05-06T04:00:19.345Z,100626.43
2023-05-06T04:03:28.433Z,100628.69
2023-05-06T04:06:36.600Z,100628.30
2023-05-06T04:10:04.420Z,100629.99
2023-05-06T04:13:28.605Z,100629.06
2023-05-06T04:16:56.433Z,100630.36
2023-05-06T04:20:05.582Z,100631.86
2023-05-06T04:23:14.271Z,100631.86
2023-05-06T04:25:42.637Z,100632.36
2023-05-06T04:29:10.541Z,100639.31
2023-05-06T04:32:34.115Z,100644.09
2023-05-06T04:35:23.676Z,100641.09
2023-05-06T04:38:51.373Z,100643.60
2023-05-06T04:42:19.122Z,100640.88
2023-05-06T04:45:46.993Z,100643.09
2023-05-06T04:49:14.821Z,100641.13
2023-05-06T04:52:42.827Z,100639.98
2023-05-06T04:55:51.514Z,100642.58
2023-05-06T04:59:19.369Z,100648.42
2023-05-06T05:02:09.377Z,100649.89
2023-05-06T05:05:37.367Z,100653.09
2023-05-06T05:09:05.099Z,100656.59
2023-05-06T05:12:33.353Z,100660.27
2023-05-06T05:15:25.720Z,100654.83
2023-05-06T05:18:53.435Z,100659.31
2023-05-06T05:22:21.274Z,100661.95
2023-05-06T05:25:49.027Z,100657.66
2023-05-06T05:29:25.666Z,100660.45
2023-05-06T05:32:53.755Z,100662.63
2023-05-06T05:36:02.290Z,100666.27
2023-05-06T05:39:30.329Z,100668.83
2023-05-06T05:42:58.849Z,100671.48
2023-05-06T05:46:09.768Z,100671.28
2023-05-06T05:49:18.786Z,100667.02
2023-05-06T05:52:46.566Z,100672.70
2023-05-06T05:55:56.384Z,100677.23
2023-05-06T05:59:24.060Z,100674.71
2023-05-06T06:02:33.091Z,100674.86
2023-05-06T06:05:41.901Z,100674.30
2023-05-06T06:09:09.823Z,100672.41
2023-05-06T06:11:58.964Z,100671.37
2023-05-06T06:15:27.180Z,100668.55
2023-05-06T06:18:35.315Z,100671.91
2023-05-06T06:22:03.262Z,100679.60
2023-05-06T06:25:31.380Z,100683.09
2023-05-06T06:28:39.851Z,100677.88
2023-05-06T06:32:08.030Z,100678.47
2023-05-06T06:35:35.972Z,100681.14
2023-05-06T06:38:24.811Z,100680.67
2023-05-06T06:41:52.878Z,100676.75
2023-05-06T06:45:20.903Z,100677.27
2023-05-06T06:48:48.846Z,100677.33
2023-05-06T06:51:58.578Z,100673.16
2023-05-06T06:55:07.430Z,100670.70
2023-05-06T06:58:16.319Z,100669.48
2023-05-06T07:01:44.431Z,100672.10
2023-05-06T07:05:12.469Z,100674.16
2023-05-06T07:08:41.215Z,100672.77
2023-05-06T07:12:09.811Z,100674.90
2023-05-06T07:15:37.809Z,100679.47
2023-05-06T07:19:06.927Z,100685.69
2023-05-06T07:22:35.530Z,100682.15
2023-05-06T07:26:03.587Z,100680.44
2023-05-06T07:29:31.464Z,100682.48
2023-05-06T07:32:59.189Z,100681.20
2023-05-06T07:36:27.062Z,100685.97
2023-05-06T07:39:54.987Z,100686.95
2023-05-06T07:43:23.205Z,100685.27
2023-05-06T07:46:51.135Z,100686.88
2023-05-06T07:49:39.886Z,100687.52
2023-05-06T07:52:48.328Z,100686.02
2023-05-06T07:56:16.197Z,100686.95
2023-05-06T07:59:45.340Z,100687.11
2023-05-06T08:03:00.686Z,100688.67
2023-05-06T08:06:28.484Z,100686.59
2023-05-06T08:09:56.377Z,100689.77
2023-05-06T08:13:24.230Z,100689.14
2023-05-06T08:16:35.894Z,100695.22
2023-05-06T08:19:25.225Z,100692.30
2023-05-06T08:22:53.158Z,100692.51
2023-05-06T08:26:20.954Z,100688.00
2023-05-06T08:29:48.779Z,100684.95
2023-05-06T08:32:57.740Z,100685.34
2023-05-06T08:36:25.713Z,100689.11
2023-05-06T08:39:34.825Z,100689.66
2023-05-06T08:43:02.535Z,100687.01
2023-05-06T08:46:30.438Z,100684.45
2023-05-06T08:49:58.372Z,100683.41
2023-05-06T08:53:26.373Z,100682.44
2023-05-06T08:56:54.363Z,100679.60
2023-05-06T09:00:22.236Z,100681.39
2023-05-06T09:03:31.266Z,100676.77
2023-05-06T09:06:59.151Z,100679.13
2023-05-06T09:10:07.204Z,100674.17
2023-05-06T09:13:35.053Z,100673.52
2023-05-06T09:16:44.029Z,100673.08
2023-05-06T09:20:11.836Z,100674.09
2023-05-06T09:23:39.873Z,100670.05
2023-05-06T09:27:10.393Z,100668.50
2023-05-06T09:30:36.240Z,100666.00
2023-05-06T09:33:44.790Z,100670.13
2023-05-06T09:37:12.781Z,100665.28
2023-05-06T09:40:41.580Z,100664.93
2023-05-06T09:44:09.453Z,100665.64
2023-05-06T09:47:37.221Z,100658.97
2023-05-06T09:51:04.765Z,100658.50
2023-05-06T09:54:32.556Z,100660.34
2023-05-06T09:58:00.488Z,100651.77
2023-05-06T10:01:35.937Z,100648.14
2023-05-06T10:04:56.273Z,100647.78
2023-05-06T10:08:23.891Z,100639.59
2023-05-06T10:11:51.894Z,100640.77
2023-05-06T10:15:20.014Z,100629.62
2023-05-06T10:18:47.793Z,100625.11
2023-05-06T10:22:15.873Z,100623.42
2023-05-06T10:25:43.564Z,100624.13
2023-05-06T10:29:11.457Z,100622.82
2023-05-06T10:32:39.341Z,100615.92
2023-05-06T10:36:07.295Z,100614.07
2023-05-06T10:39:34.980Z,100612.11
2023-05-06T10:43:03.047Z,100606.55
2023-05-06T10:46:13.060Z,100600.02
2023-05-06T10:49:40.699Z,100601.94
2023-05-06T10:53:08.469Z,100597.98
2023-05-06T10:56:18.550Z,100601.11
2023-05-06T10:59:46.657Z,100603.34
2023-05-06T11:03:14.622Z,100595.34
2023-05-06T11:06:43.341Z,100587.58
2023-05-06T11:10:11.158Z,100589.00
2023-05-06T11:13:39.320Z,100586.23
2023-05-06T11:17:07.272Z,100582.55
2023-05-06T11:19:35.816Z,100587.44
2023-05-06T11:23:03.701Z,100581.81
2023-05-06T11:26:31.694Z,100584.08
2023-05-06T11:29:55.740Z,100573.88
2023-05-06T11:33:23.568Z,100572.89
2023-05-06T11:36:31.981Z,100566.35
2023-05-06T11:39:41.866Z,100572.72
2023-05-06T11:42:52.076Z,100572.35
2023-05-06T11:46:00.283Z,100568.55
2023-05-06T11:49:28.158Z,100567.09
2023-05-06T11:52:56.248Z,100569.66
2023-05-06T11:56:24.037Z,100570.36
2023-05-06T11:59:51.771Z,100570.71
2023-05-06T12:03:00.190Z,100566.01
2023-05-06T12:06:12.089Z,100567.38
2023-05-06T12:09:00.957Z,100563.34
2023-05-06T12:12:28.857Z,100557.52
2023-05-06T12:15:24.838Z,100558.83
2023-05-06T12:18:13.800Z,100565.16
2023-05-06T12:20:41.785Z,100560.23
2023-05-06T12:23:37.527Z,100554.63
2023-05-06T12:27:05.804Z,100554.21
2023-05-06T12:30:33.883Z,100548.51
2023-05-06T12:34:02.139Z,100549.96
2023-05-06T12:37:30.064Z,100551.95
2023-05-06T12:40:58.134Z,100545.09
2023-05-06T12:44:06.381Z,100544.20
2023-05-06T12:47:14.321Z,100540.48
2023-05-06T12:49:52.282Z,100543.27
2023-05-06T12:52:42.592Z,100544.16
2023-05-06T12:55:46.190Z,100543.08
2023-05-06T12:58:39.773Z,100541.14
2023-05-06T13:01:10.246Z,100539.15
2023-05-06T13:04:19.747Z,100537.74
2023-05-06T13:07:12.222Z,100540.06
2023-05-06T13:10:00.212Z,100541.45
2023-05-06T13:13:27.978Z,100543.83
2023-05-06T13:16:12.288Z,100540.75
2023-05-06T13:19:40.091Z,100543.34
2023-05-06T13:22:33.761Z,100540.79
2023-05-06T13:26:04.893Z,100540.82
2023-05-06T13:29:07.411Z,100534.70
2023-05-06T13:31:55.562Z,100533.77
2023-05-06T13:35:05.685Z,100532.16
2023-05-06T13:38:33.613Z,100530.21
2023-05-06T13:41:43.348Z,100529.34
2023-05-06T13:44:42.360Z,100528.16
2023-05-06T13:48:15.506Z,100528.22
2023-05-06T13:51:23.924Z,100522.38
2023-05-06T13:54:24.478Z,100520.39
2023-05-06T13:57:34.029Z,100516.16
2023-05-06T14:00:24.531Z,100520.02
2023-05-06T14:03:52.376Z,100519.80
2023-05-06T14:07:20.485Z,100518.70
2023-05-06T14:10:28.753Z,100521.60
2023-05-06T14:12:57.495Z,100519.52
2023-05-06T14:16:06.448Z,100514.40
2023-05-06T14:19:34.959Z,100516.95
2023-05-06T14:23:02.762Z,100520.27
2023-05-06T14:26:30.511Z,100518.88
2023-05-06T14:29:42.404Z,100522.49
2023-05-06T14:32:30.658Z,100518.46
2023-05-06T14:35:18.616Z,100513.30
2023-05-06T14:38:49.351Z,100516.16
2023-05-06T14:41:38.828Z,100512.56
2023-05-06T14:45:06.857Z,100502.54
2023-05-06T14:48:15.902Z,100505.33
2023-05-06T14:51:44.095Z,100508.48
2023-05-06T14:55:12.726Z,100505.77
2023-05-06T14:58:40.415Z,100508.54
2023-05-06T15:02:08.697Z,100508.49
2023-05-06T15:04:38.652Z,100505.95
2023-05-06T15:08:06.864Z,100507.92
2023-05-06T15:11:15.264Z,100503.38
2023-05-06T15:14:23.343Z,100498.52
2023-05-06T15:17:39.753Z,100495.05
2023-05-06T15:21:07.732Z,100492.44
2023-05-06T15:24:36.148Z,100493.39
2023-05-06T15:28:04.282Z,100494.48
2023-05-06T15:31:12.780Z,100494.13
2023-05-06T15:34:40.836Z,100485.01
2023-05-06T15:38:09.733Z,100489.27
2023-05-06T15:41:37.819Z,100489.70
2023-05-06T15:44:45.914Z,100492.39
2023-05-06T15:47:54.088Z,100483.85
2023-05-06T15:51:22.061Z,100490.70
2023-05-06T15:54:50.341Z,100485.08
2023-05-06T15:58:00.407Z,100480.38
2023-05-06T16:01:11.418Z,100475.13
2023-05-06T16:04:40.668Z,100475.30
2023-05-06T16:07:49.462Z,100476.92
2023-05-06T16:11:17.362Z,100467.54
2023-05-06T16:14:07.117Z,100470.41
2023-05-06T16:17:04.167Z,100469.44
2023-05-06T16:20:12.814Z,100470.66
2023-05-06T16:23:21.243Z,100476.04
2023-05-06T16:26:49.088Z,100475.23
2023-05-06T16:29:38.990Z,100474.92
2023-05-06T16:33:07.159Z,100474.27
2023-05-06T16:36:35.304Z,100474.73
2023-05-06T16:40:06.814Z,100471.31
2023-05-06T16:42:57.369Z,100470.45
2023-05-06T16:45:25.188Z,100472.14
2023-05-06T16:48:13.195Z,100466.29
2023-05-06T16:51:16.446Z,100466.66
2023-05-06T16:53:47.498Z,100470.43
2023-05-06T16:56:16.648Z,100471.48
2023-05-06T16:59:28.360Z,100470.45
2023-05-06T17:02:20.128Z,100476.27
2023-05-06T17:05:12.364Z,100469.82
2023-05-06T17:08:20.328Z,100471.16
2023-05-06T17:11:24.040Z,100473.52
2023-05-06T17:14:12.444Z,100472.10
2023-05-06T17:17:40.726Z,100476.70
2023-05-06T17:20:55.645Z,100473.11
2023-05-06T17:24:05.223Z,100478.60
2023-05-06T17:27:33.208Z,100483.36
2023-05-06T17:30:01.232Z,100484.30
2023-05-06T17:32:59.425Z,100488.82
2023-05-06T17:36:22.898Z,100490.90
2023-05-06T17:39:50.843Z,100495.40
2023-05-06T17:43:19.513Z,100493.60
2023-05-06T17:46:35.498Z,100501.63
2023-05-06T17:49:33.128Z,100503.62
2023-05-06T17:52:42.014Z,100507.23
2023-05-06T17:55:51.089Z,100507.44
2023-05-06T17:58:49.451Z,100510.66
2023-05-06T18:01:58.629Z,100518.77
2023-05-06T18:05:26.668Z,100519.58
2023-05-06T18:08:54.685Z,100525.98
2023-05-06T18:12:22.468Z,100534.98
2023-05-06T18:15:31.346Z,100537.16
2023-05-06T18:18:59.265Z,100543.27
2023-05-06T18:22:08.231Z,100550.62
2023-05-06T18:25:36.174Z,100552.30
2023-05-06T18:29:04.064Z,100554.91
2023-05-06T18:32:32.054Z,100553.83
2023-05-06T18:36:00.037Z,100553.77
2023-05-06T18:38:49.598Z,100557.51
2023-05-06T18:42:05.635Z,100556.59
2023-05-06T18:44:54.534Z,100566.23
2023-05-06T18:48:03.213Z,100564.97
2023-05-06T18:51:15.143Z,100572.42
2023-05-06T18:54:26.822Z,100568.64
2023-05-06T18:57:23.477Z,100567.73
2023-05-06T19:00:51.497Z,100572.87
2023-05-06T19:04:07.326Z,100574.67
2023-05-06T19:07:16.211Z,100571.92
2023-05-06T19:10:43.564Z,100573.20
2023-05-06T19:13:55.390Z,100576.05
2023-05-06T19:16:45.867Z,100573.45
2023-05-06T19:20:14.069Z,100571.80
2023-05-06T19:23:18.345Z,100570.38
2023-05-06T19:26:10.954Z,100569.16
2023-05-06T19:29:00.288Z,100566.26
2023-05-06T19:32:28.329Z,100576.03
2023-05-06T19:35:36.305Z,100572.58
2023-05-06T19:39:04.399Z,100569.71
2023-05-06T19:42:12.457Z,100574.08
2023-05-06T19:45:40.392Z,100574.92
2023-05-06T19:48:50.495Z,100571.09
2023-05-06T19:52:18.371Z,100570.01
2023-05-06T19:55:46.293Z,100573.24
2023-05-06T19:59:14.180Z,100574.84
2023-05-06T20:02:42.280Z,100567.16
2023-05-06T20:06:09.928Z,100566.00
2023-05-06T20:09:37.814Z,100563.37
2023-05-06T20:13:05.654Z,100557.88
2023-05-06T20:16:33.361Z,100557.72
2023-05-06T20:20:02.792Z,100557.21
2023-05-06T20:23:29.230Z,100553.81
2023-05-06T20:26:56.948Z,100556.55
2023-05-06T20:30:24.792Z,100555.59
2023-05-06T20:33:52.622Z,100554.47
2023-05-06T20:37:20.551Z,100550.20
2023-05-06T20:40:48.179Z,100549.00
2023-05-06T20:44:16.022Z,100546.69
2023-05-06T20:47:43.794Z,100544.80
2023-05-06T20:51:11.567Z,100548.77
2023-05-06T20:54:39.564Z,100553.05
2023-05-06T20:58:07.173Z,100549.30
2023-05-06T21:01:14.962Z,100545.53
2023-05-06T21:04:43.145Z,100545.52
2023-05-06T21:08:11.052Z,100544.16
2023-05-06T21:11:38.956Z,100545.38
2023-05-06T21:15:07.016Z,100546.48
2023-05-06T21:18:34.860Z,100544.30
2023-05-06T21:22:05.040Z,100550.73
2023-05-06T21:25:13.862Z,100551.66
2023-05-06T21:28:41.674Z,100557.25
2023-05-06T21:32:09.416Z,100557.98
2023-05-06T21:35:37.100Z,100559.16
2023-05-06T21:38:46.552Z,100565.37
2023-05-06T21:42:14.336Z,100569.63
2023-05-06T21:45:42.682Z,100570.60
2023-05-06T21:49:10.535Z,100568.79
2023-05-06T21:52:19.200Z,100573.46
2023-05-06T21:55:47.208Z,100571.48
2023-05-06T21:59:14.945Z,100571.61
2023-05-06T22:02:42.867Z,100571.29
2023-05-06T22:06:10.624Z,100575.75
2023-05-06T22:09:38.633Z,100576.35
2023-05-06T22:13:06.651Z,100573.61
2023-05-06T22:15:39.235Z,100573.95
2023-05-06T22:19:07.122Z,100573.31
2023-05-06T22:22:16.047Z,100576.14
2023-05-06T22:25:43.822Z,100574.50
2023-05-06T22:28:15.553Z,100574.35
2023-05-06T22:31:43.714Z,100576.33
2023-05-06T22:35:10.223Z,100575.48
2023-05-06T22:37:42.971Z,100570.92
2023-05-06T22:40:12.733Z,100568.90
2023-05-06T22:43:22.968Z,100563.70
2023-05-06T22:45:55.214Z,100560.81
2023-05-06T22:49:11.029Z,100562.33
2023-05-06T22:52:20.540Z,100561.69
2023-05-06T22:55:38.080Z,100558.79
2023-05-06T22:59:05.181Z,100557.86
2023-05-06T23:02:32.941Z,100554.25
2023-05-06T23:06:00.880Z,100553.42
2023-05-06T23:09:28.815Z,100551.79
2023-05-06T23:12:38.587Z,100561.16
2023-05-06T23:16:06.332Z,100557.25
2023-05-06T23:19:34.297Z,100557.21
2023-05-06T23:23:02.106Z,100553.92
2023-05-06T23:25:51.649Z,100548.44
2023-05-06T23:29:19.541Z,100542.41
2023-05-06T23:32:47.304Z,100541.17
2023-05-06T23:35:56.195Z,100538.70
2023-05-06T23:38:52.798Z,100538.45
2023-05-06T23:42:20.530Z,100535.86
2023-05-06T23:45:28.844Z,100534.05
2023-05-06T23:48:56.614Z,100536.32
2023-05-06T23:52:05.487Z,100538.16
2023-05-06T23:55:33.135Z,100543.35
2023-05-06T23:58:41.972Z,100546.55
